sensor_id;sensor_type;location;lat;lon;timestamp;P1;durP1;ratioP1;P2;durP2;ratioP2
10315;SDS011;5203;48.976;8.306;2024-01-30T00:01:57;46.38;;;26.05;;
10315;SDS011;5203;48.976;8.306;2024-01-30T00:04:23;41.72;;;27.23;;
10315;SDS011;5203;48.976;8.306;2024-01-30T00:06:49;45.17;;;26.08;;
10315;SDS011;5203;48.976;8.306;2024-01-30T00:09:15;40.38;;;24.77;;
10315;SDS011;5203;48.976;8.306;2024-01-30T00:11:41;42.50;;;26.98;;
10315;SDS011;5203;48.976;8.306;2024-01-30T00:14:07;43.80;;;25.27;;
10315;SDS011;5203;48.976;8.306;2024-01-30T00:16:32;43.53;;;28.70;;
10315;SDS011;5203;48.976;8.306;2024-01-30T00:18:58;38.75;;;24.45;;
10315;SDS011;5203;48.976;8.306;2024-01-30T00:21:23;42.88;;;26.65;;
10315;SDS011;5203;48.976;8.306;2024-01-30T00:23:50;42.45;;;25.55;;
10315;SDS011;5203;48.976;8.306;2024-01-30T00:26:15;43.00;;;23.90;;
10315;SDS011;5203;48.976;8.306;2024-01-30T00:28:41;44.13;;;29.65;;
10315;SDS011;5203;48.976;8.306;2024-01-30T00:31:07;37.75;;;24.92;;
10315;SDS011;5203;48.976;8.306;2024-01-30T00:33:37;43.03;;;24.08;;
10315;SDS011;5203;48.976;8.306;2024-01-30T00:36:05;33.72;;;20.83;;
10315;SDS011;5203;48.976;8.306;2024-01-30T00:38:32;38.50;;;21.60;;
10315;SDS011;5203;48.976;8.306;2024-01-30T00:40:58;34.38;;;20.77;;
10315;SDS011;5203;48.976;8.306;2024-01-30T00:43:23;27.00;;;17.85;;
10315;SDS011;5203;48.976;8.306;2024-01-30T00:45:52;20.75;;;15.98;;
10315;SDS011;5203;48.976;8.306;2024-01-30T00:48:19;25.75;;;15.90;;
10315;SDS011;5203;48.976;8.306;2024-01-30T00:50:44;24.05;;;16.27;;
10315;SDS011;5203;48.976;8.306;2024-01-30T00:53:10;22.30;;;14.95;;
10315;SDS011;5203;48.976;8.306;2024-01-30T00:55:36;20.27;;;13.48;;
10315;SDS011;5203;48.976;8.306;2024-01-30T00:58:02;20.45;;;13.65;;
10315;SDS011;5203;48.976;8.306;2024-01-30T01:00:28;19.67;;;13.82;;
10315;SDS011;5203;48.976;8.306;2024-01-30T01:02:57;22.08;;;14.52;;
10315;SDS011;5203;48.976;8.306;2024-01-30T01:05:23;25.40;;;14.88;;
10315;SDS011;5203;48.976;8.306;2024-01-30T01:07:48;21.30;;;14.40;;
10315;SDS011;5203;48.976;8.306;2024-01-30T01:10:14;21.63;;;13.18;;
10315;SDS011;5203;48.976;8.306;2024-01-30T01:12:41;25.60;;;16.45;;
10315;SDS011;5203;48.976;8.306;2024-01-30T01:15:07;27.75;;;17.55;;
10315;SDS011;5203;48.976;8.306;2024-01-30T01:17:36;28.98;;;16.50;;
10315;SDS011;5203;48.976;8.306;2024-01-30T01:20:03;19.95;;;14.32;;
10315;SDS011;5203;48.976;8.306;2024-01-30T01:22:30;21.48;;;14.30;;
10315;SDS011;5203;48.976;8.306;2024-01-30T01:24:56;25.63;;;15.52;;
10315;SDS011;5203;48.976;8.306;2024-01-30T01:27:21;23.10;;;15.60;;
10315;SDS011;5203;48.976;8.306;2024-01-30T01:29:47;22.90;;;14.30;;
10315;SDS011;5203;48.976;8.306;2024-01-30T01:32:13;21.15;;;14.82;;
10315;SDS011;5203;48.976;8.306;2024-01-30T01:34:38;25.63;;;15.68;;
10315;SDS011;5203;48.976;8.306;2024-01-30T01:37:04;21.27;;;15.32;;
10315;SDS011;5203;48.976;8.306;2024-01-30T01:39:29;24.23;;;16.00;;
10315;SDS011;5203;48.976;8.306;2024-01-30T01:41:56;22.80;;;15.02;;
10315;SDS011;5203;48.976;8.306;2024-01-30T01:44:22;23.50;;;16.73;;
10315;SDS011;5203;48.976;8.306;2024-01-30T01:46:47;26.45;;;15.70;;
10315;SDS011;5203;48.976;8.306;2024-01-30T01:49:14;24.90;;;15.65;;
10315;SDS011;5203;48.976;8.306;2024-01-30T01:51:39;23.95;;;16.27;;
10315;SDS011;5203;48.976;8.306;2024-01-30T01:54:06;22.67;;;15.85;;
10315;SDS011;5203;48.976;8.306;2024-01-30T01:56:33;21.45;;;13.93;;
10315;SDS011;5203;48.976;8.306;2024-01-30T01:59:03;22.75;;;14.20;;
10315;SDS011;5203;48.976;8.306;2024-01-30T02:01:34;22.00;;;13.68;;
10315;SDS011;5203;48.976;8.306;2024-01-30T02:04:02;21.73;;;14.65;;
10315;SDS011;5203;48.976;8.306;2024-01-30T02:06:29;19.80;;;14.15;;
10315;SDS011;5203;48.976;8.306;2024-01-30T02:08:55;23.98;;;15.15;;
10315;SDS011;5203;48.976;8.306;2024-01-30T02:11:21;21.15;;;15.07;;
10315;SDS011;5203;48.976;8.306;2024-01-30T02:13:48;21.70;;;13.65;;
10315;SDS011;5203;48.976;8.306;2024-01-30T02:16:14;20.38;;;13.18;;
10315;SDS011;5203;48.976;8.306;2024-01-30T02:18:39;22.75;;;14.35;;
10315;SDS011;5203;48.976;8.306;2024-01-30T02:21:10;24.15;;;14.50;;
10315;SDS011;5203;48.976;8.306;2024-01-30T02:23:36;21.95;;;15.68;;
10315;SDS011;5203;48.976;8.306;2024-01-30T02:26:03;28.73;;;16.63;;
10315;SDS011;5203;48.976;8.306;2024-01-30T02:28:28;25.08;;;15.75;;
10315;SDS011;5203;48.976;8.306;2024-01-30T02:30:54;23.98;;;14.23;;
10315;SDS011;5203;48.976;8.306;2024-01-30T02:33:20;25.25;;;15.38;;
10315;SDS011;5203;48.976;8.306;2024-01-30T02:35:47;22.20;;;14.25;;
10315;SDS011;5203;48.976;8.306;2024-01-30T02:38:13;27.23;;;18.75;;
10315;SDS011;5203;48.976;8.306;2024-01-30T02:40:40;21.05;;;15.32;;
10315;SDS011;5203;48.976;8.306;2024-01-30T02:43:05;24.75;;;15.20;;
10315;SDS011;5203;48.976;8.306;2024-01-30T02:45:31;21.80;;;15.40;;
10315;SDS011;5203;48.976;8.306;2024-01-30T02:47:57;21.17;;;12.75;;
10315;SDS011;5203;48.976;8.306;2024-01-30T02:50:22;19.40;;;13.93;;
10315;SDS011;5203;48.976;8.306;2024-01-30T02:52:48;20.42;;;13.80;;
10315;SDS011;5203;48.976;8.306;2024-01-30T02:55:13;20.48;;;13.65;;
10315;SDS011;5203;48.976;8.306;2024-01-30T02:57:42;19.88;;;13.93;;
10315;SDS011;5203;48.976;8.306;2024-01-30T03:00:08;19.67;;;12.98;;
10315;SDS011;5203;48.976;8.306;2024-01-30T03:02:34;25.35;;;13.45;;
10315;SDS011;5203;48.976;8.306;2024-01-30T03:05:00;21.77;;;13.02;;
10315;SDS011;5203;48.976;8.306;2024-01-30T03:07:26;21.15;;;13.73;;
10315;SDS011;5203;48.976;8.306;2024-01-30T03:09:51;18.92;;;12.85;;
10315;SDS011;5203;48.976;8.306;2024-01-30T03:12:17;20.30;;;13.65;;
10315;SDS011;5203;48.976;8.306;2024-01-30T03:14:43;22.10;;;14.38;;
10315;SDS011;5203;48.976;8.306;2024-01-30T03:17:08;17.92;;;12.07;;
10315;SDS011;5203;48.976;8.306;2024-01-30T03:19:34;18.65;;;12.35;;
10315;SDS011;5203;48.976;8.306;2024-01-30T03:22:00;22.25;;;14.40;;
10315;SDS011;5203;48.976;8.306;2024-01-30T03:24:25;16.38;;;11.20;;
10315;SDS011;5203;48.976;8.306;2024-01-30T03:26:51;16.30;;;10.77;;
10315;SDS011;5203;48.976;8.306;2024-01-30T03:29:18;17.55;;;11.65;;
10315;SDS011;5203;48.976;8.306;2024-01-30T03:31:43;16.27;;;11.30;;
10315;SDS011;5203;48.976;8.306;2024-01-30T03:34:09;18.17;;;11.45;;
10315;SDS011;5203;48.976;8.306;2024-01-30T03:36:35;17.65;;;11.95;;
10315;SDS011;5203;48.976;8.306;2024-01-30T03:39:00;18.25;;;11.48;;
10315;SDS011;5203;48.976;8.306;2024-01-30T03:41:27;18.23;;;12.10;;
10315;SDS011;5203;48.976;8.306;2024-01-30T03:43:53;22.67;;;13.18;;
10315;SDS011;5203;48.976;8.306;2024-01-30T03:46:18;16.80;;;12.43;;
10315;SDS011;5203;48.976;8.306;2024-01-30T03:48:47;18.92;;;14.57;;
10315;SDS011;5203;48.976;8.306;2024-01-30T03:51:13;16.63;;;11.80;;
10315;SDS011;5203;48.976;8.306;2024-01-30T03:53:40;18.40;;;12.85;;
10315;SDS011;5203;48.976;8.306;2024-01-30T03:56:06;19.23;;;11.63;;
10315;SDS011;5203;48.976;8.306;2024-01-30T03:58:32;19.23;;;12.00;;
10315;SDS011;5203;48.976;8.306;2024-01-30T04:00:58;18.52;;;12.55;;
10315;SDS011;5203;48.976;8.306;2024-01-30T04:03:23;19.70;;;12.25;;
10315;SDS011;5203;48.976;8.306;2024-01-30T04:05:49;22.60;;;13.13;;
10315;SDS011;5203;48.976;8.306;2024-01-30T04:08:16;25.63;;;14.23;;
10315;SDS011;5203;48.976;8.306;2024-01-30T04:10:42;21.10;;;13.57;;
10315;SDS011;5203;48.976;8.306;2024-01-30T04:13:08;17.75;;;12.65;;
10315;SDS011;5203;48.976;8.306;2024-01-30T04:15:34;19.98;;;12.18;;
10315;SDS011;5203;48.976;8.306;2024-01-30T04:18:00;18.92;;;12.75;;
10315;SDS011;5203;48.976;8.306;2024-01-30T04:20:25;18.92;;;12.40;;
10315;SDS011;5203;48.976;8.306;2024-01-30T04:22:51;23.23;;;14.07;;
10315;SDS011;5203;48.976;8.306;2024-01-30T04:25:17;17.20;;;11.90;;
10315;SDS011;5203;48.976;8.306;2024-01-30T04:27:43;28.88;;;13.30;;
10315;SDS011;5203;48.976;8.306;2024-01-30T04:30:08;18.30;;;11.98;;
10315;SDS011;5203;48.976;8.306;2024-01-30T04:32:35;17.10;;;11.02;;
10315;SDS011;5203;48.976;8.306;2024-01-30T04:35:02;19.10;;;12.23;;
10315;SDS011;5203;48.976;8.306;2024-01-30T04:37:28;18.40;;;14.30;;
10315;SDS011;5203;48.976;8.306;2024-01-30T04:39:53;19.02;;;12.23;;
10315;SDS011;5203;48.976;8.306;2024-01-30T04:42:19;17.48;;;13.40;;
10315;SDS011;5203;48.976;8.306;2024-01-30T04:44:45;16.38;;;10.27;;
10315;SDS011;5203;48.976;8.306;2024-01-30T04:47:10;19.42;;;11.85;;
10315;SDS011;5203;48.976;8.306;2024-01-30T04:49:38;17.15;;;10.30;;
10315;SDS011;5203;48.976;8.306;2024-01-30T04:52:07;18.67;;;12.07;;
10315;SDS011;5203;48.976;8.306;2024-01-30T04:54:33;15.95;;;11.73;;
10315;SDS011;5203;48.976;8.306;2024-01-30T04:57:00;17.73;;;11.93;;
10315;SDS011;5203;48.976;8.306;2024-01-30T04:59:26;19.17;;;13.27;;
10315;SDS011;5203;48.976;8.306;2024-01-30T05:01:52;18.10;;;10.93;;
10315;SDS011;5203;48.976;8.306;2024-01-30T05:04:17;18.13;;;11.50;;
10315;SDS011;5203;48.976;8.306;2024-01-30T05:06:43;15.93;;;10.50;;
10315;SDS011;5203;48.976;8.306;2024-01-30T05:09:09;14.50;;;11.18;;
10315;SDS011;5203;48.976;8.306;2024-01-30T05:11:38;15.27;;;10.55;;
10315;SDS011;5203;48.976;8.306;2024-01-30T05:14:05;16.88;;;11.93;;
10315;SDS011;5203;48.976;8.306;2024-01-30T05:16:32;20.33;;;11.23;;
10315;SDS011;5203;48.976;8.306;2024-01-30T05:18:58;18.42;;;10.88;;
10315;SDS011;5203;48.976;8.306;2024-01-30T05:21:24;17.17;;;11.20;;
10315;SDS011;5203;48.976;8.306;2024-01-30T05:23:50;22.02;;;12.90;;
10315;SDS011;5203;48.976;8.306;2024-01-30T05:26:16;16.52;;;11.23;;
10315;SDS011;5203;48.976;8.306;2024-01-30T05:28:41;14.32;;;10.35;;
10315;SDS011;5203;48.976;8.306;2024-01-30T05:31:09;16.10;;;11.48;;
10315;SDS011;5203;48.976;8.306;2024-01-30T05:33:35;17.60;;;11.02;;
10315;SDS011;5203;48.976;8.306;2024-01-30T05:36:01;17.30;;;11.00;;
10315;SDS011;5203;48.976;8.306;2024-01-30T05:38:27;16.90;;;11.25;;
10315;SDS011;5203;48.976;8.306;2024-01-30T05:40:53;18.08;;;12.45;;
10315;SDS011;5203;48.976;8.306;2024-01-30T05:43:19;17.23;;;11.60;;
10315;SDS011;5203;48.976;8.306;2024-01-30T05:45:44;18.52;;;11.77;;
10315;SDS011;5203;48.976;8.306;2024-01-30T05:48:10;18.17;;;11.57;;
10315;SDS011;5203;48.976;8.306;2024-01-30T05:50:36;21.75;;;19.45;;
10315;SDS011;5203;48.976;8.306;2024-01-30T05:53:01;19.98;;;16.25;;
10315;SDS011;5203;48.976;8.306;2024-01-30T05:55:27;19.13;;;11.80;;
10315;SDS011;5203;48.976;8.306;2024-01-30T05:57:53;18.83;;;13.50;;
10315;SDS011;5203;48.976;8.306;2024-01-30T06:00:19;20.10;;;13.43;;
10315;SDS011;5203;48.976;8.306;2024-01-30T06:02:44;21.52;;;14.70;;
10315;SDS011;5203;48.976;8.306;2024-01-30T06:05:10;21.02;;;12.30;;
10315;SDS011;5203;48.976;8.306;2024-01-30T06:07:36;21.30;;;12.82;;
10315;SDS011;5203;48.976;8.306;2024-01-30T06:10:02;24.95;;;13.85;;
10315;SDS011;5203;48.976;8.306;2024-01-30T06:12:28;16.52;;;11.30;;
10315;SDS011;5203;48.976;8.306;2024-01-30T06:14:57;19.02;;;13.52;;
10315;SDS011;5203;48.976;8.306;2024-01-30T06:17:24;20.17;;;13.77;;
10315;SDS011;5203;48.976;8.306;2024-01-30T06:19:50;24.08;;;14.85;;
10315;SDS011;5203;48.976;8.306;2024-01-30T06:22:15;19.83;;;13.95;;
10315;SDS011;5203;48.976;8.306;2024-01-30T06:24:41;20.65;;;14.32;;
10315;SDS011;5203;48.976;8.306;2024-01-30T06:27:10;18.40;;;12.85;;
10315;SDS011;5203;48.976;8.306;2024-01-30T06:29:35;22.45;;;14.00;;
10315;SDS011;5203;48.976;8.306;2024-01-30T06:32:01;24.50;;;13.85;;
10315;SDS011;5203;48.976;8.306;2024-01-30T06:34:27;21.95;;;13.75;;
10315;SDS011;5203;48.976;8.306;2024-01-30T06:36:53;22.35;;;13.68;;
10315;SDS011;5203;48.976;8.306;2024-01-30T06:39:18;26.75;;;15.30;;
10315;SDS011;5203;48.976;8.306;2024-01-30T06:41:44;21.85;;;14.15;;
10315;SDS011;5203;48.976;8.306;2024-01-30T06:44:11;22.55;;;15.07;;
10315;SDS011;5203;48.976;8.306;2024-01-30T06:46:38;24.33;;;14.50;;
10315;SDS011;5203;48.976;8.306;2024-01-30T06:49:06;24.23;;;15.50;;
10315;SDS011;5203;48.976;8.306;2024-01-30T06:51:32;19.13;;;13.02;;
10315;SDS011;5203;48.976;8.306;2024-01-30T06:53:58;22.38;;;13.23;;
10315;SDS011;5203;48.976;8.306;2024-01-30T06:56:24;28.50;;;15.98;;
10315;SDS011;5203;48.976;8.306;2024-01-30T06:58:50;27.63;;;15.55;;
10315;SDS011;5203;48.976;8.306;2024-01-30T07:01:16;29.63;;;17.55;;
10315;SDS011;5203;48.976;8.306;2024-01-30T07:03:42;34.28;;;20.08;;
10315;SDS011;5203;48.976;8.306;2024-01-30T07:06:11;29.50;;;16.55;;
10315;SDS011;5203;48.976;8.306;2024-01-30T07:08:42;29.25;;;16.70;;
10315;SDS011;5203;48.976;8.306;2024-01-30T07:11:17;24.63;;;16.88;;
10315;SDS011;5203;48.976;8.306;2024-01-30T07:13:51;29.33;;;16.33;;
10315;SDS011;5203;48.976;8.306;2024-01-30T07:16:16;26.65;;;15.75;;
10315;SDS011;5203;48.976;8.306;2024-01-30T07:18:43;24.77;;;14.75;;
10315;SDS011;5203;48.976;8.306;2024-01-30T07:21:12;18.98;;;13.23;;
10315;SDS011;5203;48.976;8.306;2024-01-30T07:23:41;21.60;;;12.38;;
10315;SDS011;5203;48.976;8.306;2024-01-30T07:26:08;21.63;;;14.63;;
10315;SDS011;5203;48.976;8.306;2024-01-30T07:28:34;23.40;;;13.90;;
10315;SDS011;5203;48.976;8.306;2024-01-30T07:31:00;15.63;;;11.73;;
10315;SDS011;5203;48.976;8.306;2024-01-30T07:33:27;19.08;;;12.75;;
10315;SDS011;5203;48.976;8.306;2024-01-30T07:35:53;22.75;;;12.40;;
10315;SDS011;5203;48.976;8.306;2024-01-30T07:38:19;19.92;;;12.65;;
10315;SDS011;5203;48.976;8.306;2024-01-30T07:40:45;22.83;;;12.63;;
10315;SDS011;5203;48.976;8.306;2024-01-30T07:43:11;24.20;;;14.82;;
10315;SDS011;5203;48.976;8.306;2024-01-30T07:45:37;19.38;;;13.82;;
10315;SDS011;5203;48.976;8.306;2024-01-30T07:48:06;20.58;;;13.23;;
10315;SDS011;5203;48.976;8.306;2024-01-30T07:50:32;26.85;;;13.68;;
10315;SDS011;5203;48.976;8.306;2024-01-30T07:52:59;45.28;;;16.70;;
10315;SDS011;5203;48.976;8.306;2024-01-30T07:55:26;28.20;;;16.33;;
10315;SDS011;5203;48.976;8.306;2024-01-30T07:57:59;33.65;;;14.95;;
10315;SDS011;5203;48.976;8.306;2024-01-30T08:00:26;22.27;;;14.02;;
10315;SDS011;5203;48.976;8.306;2024-01-30T08:02:54;24.58;;;13.75;;
10315;SDS011;5203;48.976;8.306;2024-01-30T08:05:21;25.52;;;15.25;;
10315;SDS011;5203;48.976;8.306;2024-01-30T08:07:50;23.98;;;14.48;;
10315;SDS011;5203;48.976;8.306;2024-01-30T08:10:18;27.52;;;12.60;;
10315;SDS011;5203;48.976;8.306;2024-01-30T08:12:45;25.95;;;13.15;;
10315;SDS011;5203;48.976;8.306;2024-01-30T08:15:11;19.35;;;13.18;;
10315;SDS011;5203;48.976;8.306;2024-01-30T08:17:38;25.88;;;14.80;;
10315;SDS011;5203;48.976;8.306;2024-01-30T08:20:04;31.75;;;16.35;;
10315;SDS011;5203;48.976;8.306;2024-01-30T08:22:31;26.98;;;15.23;;
10315;SDS011;5203;48.976;8.306;2024-01-30T08:24:56;25.55;;;15.32;;
10315;SDS011;5203;48.976;8.306;2024-01-30T08:27:22;25.40;;;15.93;;
10315;SDS011;5203;48.976;8.306;2024-01-30T08:29:48;24.88;;;14.95;;
10315;SDS011;5203;48.976;8.306;2024-01-30T08:32:15;24.70;;;16.13;;
10315;SDS011;5203;48.976;8.306;2024-01-30T08:34:40;23.27;;;16.20;;
10315;SDS011;5203;48.976;8.306;2024-01-30T08:37:06;31.23;;;19.73;;
10315;SDS011;5203;48.976;8.306;2024-01-30T08:39:32;24.25;;;15.85;;
10315;SDS011;5203;48.976;8.306;2024-01-30T08:41:58;29.80;;;18.88;;
10315;SDS011;5203;48.976;8.306;2024-01-30T08:44:23;25.40;;;16.83;;
10315;SDS011;5203;48.976;8.306;2024-01-30T08:46:49;28.42;;;15.52;;
10315;SDS011;5203;48.976;8.306;2024-01-30T08:49:19;26.92;;;15.63;;
10315;SDS011;5203;48.976;8.306;2024-01-30T08:51:45;23.42;;;14.60;;
10315;SDS011;5203;48.976;8.306;2024-01-30T08:54:11;23.85;;;13.63;;
10315;SDS011;5203;48.976;8.306;2024-01-30T08:56:36;21.00;;;11.93;;
10315;SDS011;5203;48.976;8.306;2024-01-30T08:59:02;17.67;;;10.82;;
10315;SDS011;5203;48.976;8.306;2024-01-30T09:01:27;16.63;;;12.18;;
10315;SDS011;5203;48.976;8.306;2024-01-30T09:03:53;20.48;;;11.35;;
10315;SDS011;5203;48.976;8.306;2024-01-30T09:06:19;19.85;;;11.80;;
10315;SDS011;5203;48.976;8.306;2024-01-30T09:08:44;18.60;;;10.15;;
10315;SDS011;5203;48.976;8.306;2024-01-30T09:11:14;19.58;;;12.25;;
10315;SDS011;5203;48.976;8.306;2024-01-30T09:13:40;21.17;;;12.10;;
10315;SDS011;5203;48.976;8.306;2024-01-30T09:16:06;26.70;;;15.15;;
10315;SDS011;5203;48.976;8.306;2024-01-30T09:18:32;19.98;;;11.43;;
10315;SDS011;5203;48.976;8.306;2024-01-30T09:20:58;23.25;;;13.10;;
10315;SDS011;5203;48.976;8.306;2024-01-30T09:23:24;19.33;;;14.88;;
10315;SDS011;5203;48.976;8.306;2024-01-30T09:25:50;20.33;;;12.40;;
10315;SDS011;5203;48.976;8.306;2024-01-30T09:28:17;23.98;;;15.07;;
10315;SDS011;5203;48.976;8.306;2024-01-30T09:30:43;23.48;;;14.68;;
10315;SDS011;5203;48.976;8.306;2024-01-30T09:33:08;24.33;;;15.95;;
10315;SDS011;5203;48.976;8.306;2024-01-30T09:35:35;23.92;;;16.67;;
10315;SDS011;5203;48.976;8.306;2024-01-30T09:38:01;28.35;;;16.15;;
10315;SDS011;5203;48.976;8.306;2024-01-30T09:40:27;25.77;;;15.80;;
10315;SDS011;5203;48.976;8.306;2024-01-30T09:42:53;25.02;;;14.30;;
10315;SDS011;5203;48.976;8.306;2024-01-30T09:45:19;26.02;;;15.55;;
10315;SDS011;5203;48.976;8.306;2024-01-30T09:47:49;27.10;;;16.08;;
10315;SDS011;5203;48.976;8.306;2024-01-30T09:50:15;27.08;;;15.55;;
10315;SDS011;5203;48.976;8.306;2024-01-30T09:52:41;25.67;;;16.77;;
10315;SDS011;5203;48.976;8.306;2024-01-30T09:55:09;33.10;;;19.27;;
10315;SDS011;5203;48.976;8.306;2024-01-30T09:57:35;34.33;;;20.75;;
10315;SDS011;5203;48.976;8.306;2024-01-30T10:00:02;37.58;;;22.23;;
10315;SDS011;5203;48.976;8.306;2024-01-30T10:02:29;34.42;;;20.73;;
10315;SDS011;5203;48.976;8.306;2024-01-30T10:04:58;37.10;;;21.55;;
10315;SDS011;5203;48.976;8.306;2024-01-30T10:07:25;34.13;;;21.50;;
10315;SDS011;5203;48.976;8.306;2024-01-30T10:09:51;32.97;;;21.40;;
10315;SDS011;5203;48.976;8.306;2024-01-30T10:12:18;34.15;;;19.52;;
10315;SDS011;5203;48.976;8.306;2024-01-30T10:14:44;35.25;;;20.30;;
10315;SDS011;5203;48.976;8.306;2024-01-30T10:17:10;34.72;;;21.20;;
10315;SDS011;5203;48.976;8.306;2024-01-30T10:19:37;30.67;;;20.65;;
10315;SDS011;5203;48.976;8.306;2024-01-30T10:22:03;32.35;;;21.05;;
10315;SDS011;5203;48.976;8.306;2024-01-30T10:24:29;38.28;;;21.40;;
10315;SDS011;5203;48.976;8.306;2024-01-30T10:26:55;33.85;;;21.30;;
10315;SDS011;5203;48.976;8.306;2024-01-30T10:29:21;33.10;;;21.27;;
10315;SDS011;5203;48.976;8.306;2024-01-30T10:31:57;35.90;;;21.83;;
10315;SDS011;5203;48.976;8.306;2024-01-30T10:34:27;36.30;;;20.52;;
10315;SDS011;5203;48.976;8.306;2024-01-30T10:36:59;38.15;;;21.73;;
10315;SDS011;5203;48.976;8.306;2024-01-30T10:39:32;36.08;;;22.33;;
10315;SDS011;5203;48.976;8.306;2024-01-30T10:42:07;37.50;;;21.98;;
10315;SDS011;5203;48.976;8.306;2024-01-30T10:47:14;35.35;;;21.80;;
10315;SDS011;5203;48.976;8.306;2024-01-30T10:49:47;35.28;;;22.20;;
10315;SDS011;5203;48.976;8.306;2024-01-30T10:52:13;34.85;;;20.40;;
10315;SDS011;5203;48.976;8.306;2024-01-30T10:54:42;35.17;;;20.00;;
10315;SDS011;5203;48.976;8.306;2024-01-30T10:57:10;33.33;;;20.58;;
10315;SDS011;5203;48.976;8.306;2024-01-30T10:59:37;31.92;;;21.25;;
10315;SDS011;5203;48.976;8.306;2024-01-30T11:02:03;36.72;;;19.67;;
10315;SDS011;5203;48.976;8.306;2024-01-30T11:04:36;35.83;;;20.75;;
10315;SDS011;5203;48.976;8.306;2024-01-30T11:07:13;31.67;;;19.92;;
10315;SDS011;5203;48.976;8.306;2024-01-30T11:09:52;33.15;;;21.77;;
10315;SDS011;5203;48.976;8.306;2024-01-30T11:12:22;30.10;;;20.30;;
10315;SDS011;5203;48.976;8.306;2024-01-30T11:15:13;32.05;;;22.85;;
10315;SDS011;5203;48.976;8.306;2024-01-30T11:20:11;33.10;;;19.65;;
10315;SDS011;5203;48.976;8.306;2024-01-30T11:22:40;35.08;;;23.13;;
10315;SDS011;5203;48.976;8.306;2024-01-30T11:25:10;36.10;;;22.10;;
10315;SDS011;5203;48.976;8.306;2024-01-30T11:27:37;34.30;;;22.60;;
10315;SDS011;5203;48.976;8.306;2024-01-30T11:30:03;32.20;;;23.13;;
10315;SDS011;5203;48.976;8.306;2024-01-30T11:32:30;37.53;;;24.02;;
10315;SDS011;5203;48.976;8.306;2024-01-30T11:34:55;36.65;;;22.83;;
10315;SDS011;5203;48.976;8.306;2024-01-30T11:37:21;35.17;;;22.40;;
10315;SDS011;5203;48.976;8.306;2024-01-30T11:39:51;37.10;;;21.30;;
10315;SDS011;5203;48.976;8.306;2024-01-30T11:42:19;36.20;;;22.38;;
10315;SDS011;5203;48.976;8.306;2024-01-30T11:44:47;30.65;;;22.02;;
10315;SDS011;5203;48.976;8.306;2024-01-30T11:47:14;34.97;;;24.25;;
10315;SDS011;5203;48.976;8.306;2024-01-30T11:49:40;34.85;;;20.88;;
10315;SDS011;5203;48.976;8.306;2024-01-30T11:52:05;35.33;;;22.65;;
10315;SDS011;5203;48.976;8.306;2024-01-30T11:54:31;30.73;;;20.65;;
10315;SDS011;5203;48.976;8.306;2024-01-30T11:56:57;33.22;;;21.48;;
10315;SDS011;5203;48.976;8.306;2024-01-30T11:59:23;36.47;;;20.92;;
10315;SDS011;5203;48.976;8.306;2024-01-30T12:01:51;31.25;;;20.30;;
10315;SDS011;5203;48.976;8.306;2024-01-30T12:04:17;31.27;;;20.13;;
10315;SDS011;5203;48.976;8.306;2024-01-30T12:06:43;35.08;;;20.60;;
10315;SDS011;5203;48.976;8.306;2024-01-30T12:09:09;29.08;;;19.75;;
10315;SDS011;5203;48.976;8.306;2024-01-30T12:14:09;32.53;;;19.27;;
10315;SDS011;5203;48.976;8.306;2024-01-30T12:16:36;29.00;;;19.65;;
10315;SDS011;5203;48.976;8.306;2024-01-30T12:19:01;29.80;;;21.98;;
10315;SDS011;5203;48.976;8.306;2024-01-30T12:21:28;30.20;;;21.25;;
10315;SDS011;5203;48.976;8.306;2024-01-30T12:23:54;28.15;;;19.08;;
10315;SDS011;5203;48.976;8.306;2024-01-30T12:26:20;29.50;;;20.95;;
10315;SDS011;5203;48.976;8.306;2024-01-30T12:28:49;32.50;;;20.50;;
10315;SDS011;5203;48.976;8.306;2024-01-30T12:31:15;26.50;;;17.00;;
10315;SDS011;5203;48.976;8.306;2024-01-30T12:33:41;30.50;;;20.30;;
10315;SDS011;5203;48.976;8.306;2024-01-30T12:36:07;35.25;;;21.25;;
10315;SDS011;5203;48.976;8.306;2024-01-30T12:38:33;30.70;;;17.88;;
10315;SDS011;5203;48.976;8.306;2024-01-30T12:40:58;28.33;;;17.40;;
10315;SDS011;5203;48.976;8.306;2024-01-30T12:43:24;27.73;;;17.65;;
10315;SDS011;5203;48.976;8.306;2024-01-30T12:45:50;38.72;;;23.75;;
10315;SDS011;5203;48.976;8.306;2024-01-30T12:48:17;26.67;;;18.00;;
10315;SDS011;5203;48.976;8.306;2024-01-30T12:50:43;31.30;;;18.13;;
10315;SDS011;5203;48.976;8.306;2024-01-30T12:53:09;29.98;;;18.13;;
10315;SDS011;5203;48.976;8.306;2024-01-30T12:55:35;31.75;;;17.70;;
10315;SDS011;5203;48.976;8.306;2024-01-30T12:58:00;28.85;;;18.63;;
10315;SDS011;5203;48.976;8.306;2024-01-30T13:00:26;28.77;;;17.40;;
10315;SDS011;5203;48.976;8.306;2024-01-30T13:02:52;25.02;;;17.25;;
10315;SDS011;5203;48.976;8.306;2024-01-30T13:05:18;26.02;;;17.20;;
10315;SDS011;5203;48.976;8.306;2024-01-30T13:07:44;28.23;;;17.15;;
10315;SDS011;5203;48.976;8.306;2024-01-30T13:10:10;27.10;;;16.65;;
10315;SDS011;5203;48.976;8.306;2024-01-30T13:12:35;23.27;;;14.63;;
10315;SDS011;5203;48.976;8.306;2024-01-30T13:15:05;29.75;;;16.30;;
10315;SDS011;5203;48.976;8.306;2024-01-30T13:17:31;21.98;;;14.60;;
10315;SDS011;5203;48.976;8.306;2024-01-30T13:19:57;29.17;;;14.60;;
10315;SDS011;5203;48.976;8.306;2024-01-30T13:22:23;24.83;;;15.05;;
10315;SDS011;5203;48.976;8.306;2024-01-30T13:24:49;24.85;;;14.60;;
10315;SDS011;5203;48.976;8.306;2024-01-30T13:27:15;29.02;;;15.30;;
10315;SDS011;5203;48.976;8.306;2024-01-30T13:29:41;24.33;;;15.40;;
10315;SDS011;5203;48.976;8.306;2024-01-30T13:32:06;25.17;;;13.60;;
10315;SDS011;5203;48.976;8.306;2024-01-30T13:34:32;23.33;;;14.65;;
10315;SDS011;5203;48.976;8.306;2024-01-30T13:36:58;23.50;;;13.70;;
10315;SDS011;5203;48.976;8.306;2024-01-30T13:39:23;25.67;;;13.27;;
10315;SDS011;5203;48.976;8.306;2024-01-30T13:41:49;22.00;;;13.10;;
10315;SDS011;5203;48.976;8.306;2024-01-30T13:44:15;19.98;;;12.55;;
10315;SDS011;5203;48.976;8.306;2024-01-30T13:46:45;24.23;;;13.35;;
10315;SDS011;5203;48.976;8.306;2024-01-30T13:49:11;22.55;;;12.32;;
10315;SDS011;5203;48.976;8.306;2024-01-30T13:51:37;19.13;;;11.75;;
10315;SDS011;5203;48.976;8.306;2024-01-30T13:54:02;20.67;;;14.30;;
10315;SDS011;5203;48.976;8.306;2024-01-30T13:56:28;20.33;;;12.10;;
10315;SDS011;5203;48.976;8.306;2024-01-30T13:58:55;19.65;;;11.80;;
10315;SDS011;5203;48.976;8.306;2024-01-30T14:01:21;18.83;;;11.00;;
10315;SDS011;5203;48.976;8.306;2024-01-30T14:03:47;22.48;;;12.95;;
10315;SDS011;5203;48.976;8.306;2024-01-30T14:06:14;19.60;;;11.45;;
10315;SDS011;5203;48.976;8.306;2024-01-30T14:08:39;20.05;;;12.05;;
10315;SDS011;5203;48.976;8.306;2024-01-30T14:11:05;17.40;;;10.20;;
10315;SDS011;5203;48.976;8.306;2024-01-30T14:13:31;19.55;;;10.63;;
10315;SDS011;5203;48.976;8.306;2024-01-30T14:15:57;18.88;;;10.68;;
10315;SDS011;5203;48.976;8.306;2024-01-30T14:18:23;15.88;;;11.25;;
10315;SDS011;5203;48.976;8.306;2024-01-30T14:20:50;19.80;;;9.88;;
10315;SDS011;5203;48.976;8.306;2024-01-30T14:23:17;21.15;;;10.35;;
10315;SDS011;5203;48.976;8.306;2024-01-30T14:25:43;16.73;;;9.77;;
10315;SDS011;5203;48.976;8.306;2024-01-30T14:28:09;16.92;;;9.52;;
10315;SDS011;5203;48.976;8.306;2024-01-30T14:30:35;15.23;;;9.75;;
10315;SDS011;5203;48.976;8.306;2024-01-30T14:33:01;18.60;;;10.40;;
10315;SDS011;5203;48.976;8.306;2024-01-30T14:35:27;20.90;;;11.07;;
10315;SDS011;5203;48.976;8.306;2024-01-30T14:37:52;18.92;;;10.95;;
10315;SDS011;5203;48.976;8.306;2024-01-30T14:40:18;20.25;;;10.68;;